createdAt,value
2023-01-10T06:00:40.308Z,4.91
2023-01-10T06:03:07.079Z,4.90
2023-01-10T06:05:34.046Z,4.88
2023-01-10T06:08:00.642Z,4.89
2023-01-10T06:10:27.841Z,4.83
2023-01-10T06:12:54.848Z,4.88
2023-01-10T06:15:21.763Z,4.86
2023-01-10T06:17:48.940Z,4.83
2023-01-10T06:20:15.779Z,4.87
2023-01-10T06:22:43.759Z,4.87
2023-01-10T06:25:11.809Z,4.80
2023-01-10T06:27:43.698Z,4.82
2023-01-10T06:30:13.353Z,4.80
2023-01-10T06:32:41.337Z,4.82
2023-01-10T06:35:08.805Z,4.89
2023-01-10T06:37:36.147Z,4.84
2023-01-10T06:40:03.512Z,4.87
2023-01-10T06:42:30.690Z,4.84
2023-01-10T06:44:57.283Z,4.84
2023-01-10T06:47:24.189Z,4.89
2023-01-10T06:49:50.810Z,4.84
2023-01-10T06:52:18.046Z,4.88
2023-01-10T06:54:44.690Z,4.93
2023-01-10T06:57:11.976Z,4.95
2023-01-10T06:59:38.547Z,4.93
2023-01-10T07:02:05.866Z,4.96
2023-01-10T07:04:32.514Z,5.00
2023-01-10T07:07:01.025Z,5.01
2023-01-10T07:09:28.541Z,5.04
2023-01-10T07:11:55.914Z,5.02
2023-01-10T07:14:22.580Z,5.01
2023-01-10T07:16:49.895Z,5.03
2023-01-10T07:19:18.120Z,5.00
2023-01-10T07:21:45.286Z,4.99
2023-01-10T07:24:11.919Z,5.02
2023-01-10T07:26:39.121Z,5.06
2023-01-10T07:29:05.845Z,5.02
2023-01-10T07:31:33.223Z,5.02
2023-01-10T07:33:59.865Z,5.00
2023-01-10T07:36:27.069Z,4.97
2023-01-10T07:38:53.693Z,5.01
2023-01-10T07:41:20.886Z,5.02
2023-01-10T07:43:48.771Z,5.06
2023-01-10T07:46:16.252Z,5.13
2023-01-10T07:48:43.698Z,5.11
2023-01-10T07:51:10.930Z,5.17
2023-01-10T07:53:38.420Z,5.18
2023-01-10T07:56:06.038Z,5.19
2023-01-10T07:58:33.179Z,5.19
2023-01-10T08:01:02.047Z,5.18
2023-01-10T08:03:33.659Z,5.22
2023-01-10T08:06:02.257Z,5.20
2023-01-10T08:08:29.916Z,5.25
2023-01-10T08:10:57.303Z,5.20
2023-01-10T08:13:24.441Z,5.25
2023-01-10T08:15:52.314Z,5.21
2023-01-10T08:18:21.072Z,5.16
2023-01-10T08:20:52.730Z,5.14
2023-01-10T08:23:21.373Z,5.17
2023-01-10T08:25:48.476Z,5.18
2023-01-10T08:28:15.209Z,5.22
2023-01-10T08:30:42.397Z,5.27
2023-01-10T08:33:10.984Z,5.28
2023-01-10T08:35:42.531Z,5.26
2023-01-10T08:38:10.950Z,5.27
2023-01-10T08:40:37.604Z,5.26
2023-01-10T08:43:07.778Z,5.23
2023-01-10T08:45:35.493Z,5.24
2023-01-10T08:48:02.508Z,5.23
2023-01-10T08:50:29.975Z,5.25
2023-01-10T08:53:00.584Z,5.28
2023-01-10T08:55:28.689Z,5.25
2023-01-10T08:57:55.562Z,5.24
2023-01-10T09:00:22.655Z,5.27
2023-01-10T09:02:49.588Z,5.32
2023-01-10T09:05:27.193Z,5.33
2023-01-10T09:08:02.997Z,5.33
2023-01-10T09:10:30.113Z,5.32
2023-01-10T09:13:02.069Z,5.31
2023-01-10T09:15:34.094Z,5.38
2023-01-10T09:18:05.199Z,5.40
2023-01-10T09:20:34.243Z,5.42
2023-01-10T09:23:06.901Z,5.44
2023-01-10T09:25:34.053Z,5.42
2023-01-10T09:28:03.038Z,5.40
2023-01-10T09:30:30.292Z,5.49
2023-01-10T09:32:58.583Z,5.52
2023-01-10T09:35:26.688Z,5.51
2023-01-10T09:37:58.652Z,5.51
2023-01-10T09:40:44.155Z,5.54
2023-01-10T09:43:26.679Z,5.55
2023-01-10T09:46:02.606Z,5.60
2023-01-10T09:48:52.257Z,5.60
2023-01-10T09:51:50.978Z,5.59
2023-01-10T09:54:28.459Z,5.61
2023-01-10T09:56:56.291Z,5.64
2023-01-10T09:59:26.559Z,5.62
2023-01-10T10:02:00.275Z,5.67
2023-01-10T10:04:30.488Z,5.69
2023-01-10T10:06:57.092Z,5.74
2023-01-10T10:09:28.049Z,5.72
2023-01-10T10:12:14.838Z,5.72
2023-01-10T10:15:00.688Z,5.77
2023-01-10T10:17:37.424Z,5.80
2023-01-10T10:20:25.186Z,5.86
2023-01-10T10:22:52.324Z,5.88
2023-01-10T10:25:52.314Z,5.86
2023-01-10T10:29:03.843Z,5.86
2023-01-10T10:31:56.445Z,5.95
2023-01-10T10:34:28.547Z,5.96
2023-01-10T10:37:01.095Z,5.98
2023-01-10T10:39:39.092Z,5.91
2023-01-10T10:42:13.536Z,5.96
2023-01-10T10:44:47.489Z,5.94
2023-01-10T10:47:19.444Z,6.04
2023-01-10T10:50:18.964Z,5.99
2023-01-10T10:52:47.064Z,6.03
2023-01-10T10:55:19.133Z,6.01
2023-01-10T10:57:59.598Z,6.04
2023-01-10T11:00:28.665Z,5.96
2023-01-10T11:03:16.852Z,5.95
2023-01-10T11:05:46.819Z,5.94
2023-01-10T11:08:17.384Z,5.95
2023-01-10T11:10:56.499Z,6.01
2023-01-10T11:13:33.856Z,6.05
2023-01-10T11:16:05.832Z,6.04
2023-01-10T11:18:34.045Z,6.06
2023-01-10T11:21:05.385Z,6.04
2023-01-10T11:23:56.873Z,6.09
2023-01-10T11:26:37.440Z,6.16
2023-01-10T11:29:36.857Z,6.18
2023-01-10T11:32:14.946Z,6.24
2023-01-10T11:34:49.113Z,6.27
2023-01-10T11:37:26.817Z,6.29
2023-01-10T11:40:20.402Z,6.28
2023-01-10T11:42:47.908Z,6.23
2023-01-10T11:45:17.201Z,6.22
2023-01-10T11:47:49.185Z,6.22
2023-01-10T11:50:32.289Z,6.26
2023-01-10T11:52:59.741Z,6.38
2023-01-10T11:55:29.804Z,6.39
2023-01-10T11:58:13.907Z,6.42
2023-01-10T12:00:48.475Z,6.44
2023-01-10T12:03:21.391Z,6.41
2023-01-10T12:06:15.764Z,6.43
2023-01-10T12:08:43.080Z,6.52
2023-01-10T12:11:27.627Z,6.57
2023-01-10T12:13:58.184Z,6.59
2023-01-10T12:16:32.122Z,6.66
2023-01-10T12:19:02.621Z,6.71
2023-01-10T12:21:43.715Z,6.64
2023-01-10T12:24:25.208Z,6.59
2023-01-10T12:26:53.940Z,6.59
2023-01-10T12:29:33.193Z,6.56
2023-01-10T12:32:01.119Z,6.57
2023-01-10T12:34:40.720Z,6.58
2023-01-10T12:37:27.857Z,6.55
2023-01-10T12:40:01.131Z,6.56
2023-01-10T12:43:03.358Z,6.63
2023-01-10T12:45:39.228Z,6.59
2023-01-10T12:48:44.520Z,6.57
2023-01-10T12:51:18.597Z,6.59
2023-01-10T12:53:52.400Z,6.56
2023-01-10T12:56:20.216Z,6.62
2023-01-10T12:58:51.496Z,6.65
2023-01-10T13:01:40.354Z,6.69
2023-01-10T13:04:12.920Z,6.71
2023-01-10T13:06:42.293Z,6.70
2023-01-10T13:09:21.398Z,6.63
2023-01-10T13:12:02.462Z,6.63
2023-01-10T13:14:37.088Z,6.65
2023-01-10T13:17:27.861Z,6.68
2023-01-10T13:20:16.796Z,6.63
2023-01-10T13:22:48.425Z,6.68
2023-01-10T13:25:27.772Z,6.69
2023-01-10T13:28:05.906Z,6.68
2023-01-10T13:30:37.422Z,6.71
2023-01-10T13:33:20.017Z,6.71
2023-01-10T13:35:49.057Z,6.72
2023-01-10T13:38:26.680Z,6.66
2023-01-10T13:41:29.923Z,6.69
2023-01-10T13:44:14.909Z,6.73
2023-01-10T13:46:46.488Z,6.73
2023-01-10T13:49:13.627Z,6.74
2023-01-10T13:52:18.847Z,6.70
2023-01-10T13:55:04.074Z,6.63
2023-01-10T13:57:50.432Z,6.51
2023-01-10T14:00:45.055Z,6.52
2023-01-10T14:03:36.619Z,6.54
2023-01-10T14:06:05.713Z,6.57
2023-01-10T14:08:33.524Z,6.58
2023-01-10T14:11:12.756Z,6.56
2023-01-10T14:13:52.718Z,6.48
2023-01-10T14:16:30.842Z,6.37
2023-01-10T14:18:58.366Z,6.40
2023-01-10T14:21:27.378Z,6.46
2023-01-10T14:23:56.958Z,6.36
2023-01-10T14:26:37.952Z,6.36
2023-01-10T14:29:14.043Z,6.31
2023-01-10T14:31:47.129Z,6.24
2023-01-10T14:34:28.947Z,6.19
2023-01-10T14:37:01.788Z,6.19
2023-01-10T14:39:30.484Z,6.19
2023-01-10T14:42:05.204Z,6.21
2023-01-10T14:44:35.108Z,6.21
2023-01-10T14:47:04.560Z,6.19
2023-01-10T14:49:36.201Z,6.24
2023-01-10T14:52:24.116Z,6.20
2023-01-10T14:55:02.793Z,6.13
2023-01-10T14:57:29.748Z,6.18
2023-01-10T15:00:12.480Z,6.17
2023-01-10T15:02:48.295Z,6.20
2023-01-10T15:05:19.565Z,6.12
2023-01-10T15:07:47.363Z,6.08
2023-01-10T15:10:24.844Z,6.08
2023-01-10T15:12:54.980Z,6.05
2023-01-10T15:15:34.284Z,5.96
2023-01-10T15:18:06.816Z,5.92
2023-01-10T15:20:34.154Z,5.93
2023-01-10T15:23:02.241Z,5.92
2023-01-10T15:25:38.637Z,5.98
2023-01-10T15:28:15.109Z,5.91
2023-01-10T15:30:42.561Z,5.86
2023-01-10T15:33:16.464Z,5.84
2023-01-10T15:35:43.689Z,5.83
2023-01-10T15:38:16.772Z,5.81
2023-01-10T15:40:44.164Z,5.79
2023-01-10T15:43:17.110Z,5.81
2023-01-10T15:45:46.065Z,5.79
2023-01-10T15:48:36.023Z,5.77
2023-01-10T15:51:06.526Z,5.71
2023-01-10T15:53:53.931Z,5.77
2023-01-10T15:56:25.531Z,5.78
2023-01-10T15:58:52.895Z,5.70
2023-01-10T16:01:19.942Z,5.71
2023-01-10T16:03:53.732Z,5.71
2023-01-10T16:06:27.575Z,5.71
2023-01-10T16:08:57.181Z,5.71
2023-01-10T16:11:56.608Z,5.61
2023-01-10T16:14:23.752Z,5.63
2023-01-10T16:16:50.501Z,5.60
2023-01-10T16:19:17.631Z,5.64
2023-01-10T16:21:48.417Z,5.65
2023-01-10T16:24:27.256Z,5.66
2023-01-10T16:26:55.620Z,5.61
2023-01-10T16:29:23.242Z,5.60
2023-01-10T16:31:52.222Z,5.61
2023-01-10T16:34:19.752Z,5.64
2023-01-10T16:36:46.441Z,5.64
2023-01-10T16:39:22.049Z,5.60
2023-01-10T16:42:07.676Z,5.58
2023-01-10T16:44:35.232Z,5.63
2023-01-10T16:47:06.356Z,5.63
2023-01-10T16:49:34.227Z,5.66
2023-01-10T16:52:00.887Z,5.63
2023-01-10T16:54:28.609Z,5.62
2023-01-10T16:56:55.819Z,5.60
2023-01-10T16:59:23.042Z,5.56
2023-01-10T17:01:58.231Z,5.61
2023-01-10T17:04:30.182Z,5.60
2023-01-10T17:06:57.149Z,5.64
2023-01-10T17:09:27.188Z,5.63
2023-01-10T17:11:56.627Z,5.66
2023-01-10T17:14:23.778Z,5.68
2023-01-10T17:16:50.444Z,5.66
2023-01-10T17:19:17.760Z,5.59
2023-01-10T17:21:44.347Z,5.61
2023-01-10T17:24:12.033Z,5.60
2023-01-10T17:26:38.664Z,5.63
2023-01-10T17:29:05.835Z,5.64
2023-01-10T17:31:32.444Z,5.66
2023-01-10T17:33:59.710Z,5.62
2023-01-10T17:36:30.237Z,5.62
2023-01-10T17:38:57.519Z,5.63
2023-01-10T17:41:24.366Z,5.61
2023-01-10T17:43:51.637Z,5.64
2023-01-10T17:46:18.256Z,5.68
2023-01-10T17:48:45.453Z,5.65
2023-01-10T17:51:13.184Z,5.64
2023-01-10T17:53:41.164Z,5.64
2023-01-10T17:56:08.299Z,5.67
2023-01-10T17:58:35.917Z,5.70
2023-01-10T18:01:02.817Z,5.65
2023-01-10T18:03:30.056Z,5.66
2023-01-10T18:05:58.749Z,5.71
2023-01-10T18:08:26.620Z,5.72
2023-01-10T18:11:00.021Z,5.74
2023-01-10T18:13:33.620Z,5.72
2023-01-10T18:16:01.223Z,5.74
2023-01-10T18:18:28.708Z,5.76
2023-01-10T18:20:58.106Z,5.72
2023-01-10T18:23:27.048Z,5.71
2023-01-10T18:26:12.991Z,5.77
2023-01-10T18:28:43.013Z,5.75
2023-01-10T18:31:17.996Z,5.76
2023-01-10T18:33:46.950Z,5.75
2023-01-10T18:36:19.486Z,5.78
2023-01-10T18:38:48.083Z,5.82
2023-01-10T18:41:15.726Z,5.85
2023-01-10T18:43:42.589Z,5.86
2023-01-10T18:46:18.785Z,5.89
2023-01-10T18:48:46.907Z,5.89
2023-01-10T18:51:14.662Z,5.88
2023-01-10T18:53:42.897Z,5.92
2023-01-10T18:56:10.734Z,5.92
2023-01-10T18:58:41.066Z,5.82
2023-01-10T19:01:13.842Z,5.80
2023-01-10T19:03:41.930Z,5.78
2023-01-10T19:06:14.361Z,5.76
2023-01-10T19:08:42.864Z,5.72
2023-01-10T19:11:14.483Z,5.71
2023-01-10T19:13:43.554Z,5.71
2023-01-10T19:16:25.188Z,5.62
2023-01-10T19:19:01.280Z,5.58
2023-01-10T19:21:30.350Z,5.54
2023-01-10T19:24:02.132Z,5.48
2023-01-10T19:26:29.085Z,5.50
2023-01-10T19:28:55.707Z,5.46
2023-01-10T19:31:25.903Z,5.36
2023-01-10T19:33:53.620Z,5.40
2023-01-10T19:36:22.411Z,5.34
2023-01-10T19:38:57.110Z,5.37
2023-01-10T19:41:25.235Z,5.35
2023-01-10T19:43:57.406Z,5.31
2023-01-10T19:46:24.489Z,5.28
2023-01-10T19:48:52.091Z,5.30
2023-01-10T19:51:18.715Z,5.33
2023-01-10T19:53:46.903Z,5.36
2023-01-10T19:56:22.922Z,5.24
2023-01-10T19:58:51.550Z,5.22
2023-01-10T20:01:21.284Z,5.22
2023-01-10T20:03:49.161Z,5.26
2023-01-10T20:06:20.797Z,5.33
2023-01-10T20:08:49.018Z,5.33
2023-01-10T20:11:17.233Z,5.27
2023-01-10T20:13:45.610Z,5.28
2023-01-10T20:16:13.961Z,5.27
2023-01-10T20:18:43.006Z,5.28
2023-01-10T20:21:11.531Z,5.11
2023-01-10T20:23:40.110Z,5.13
2023-01-10T20:26:14.100Z,5.10
2023-01-10T20:28:42.958Z,4.98
2023-01-10T20:31:13.002Z,5.01
2023-01-10T20:33:40.390Z,4.97
2023-01-10T20:36:10.353Z,4.99
2023-01-10T20:38:38.496Z,4.98
2023-01-10T20:41:17.974Z,5.00
2023-01-10T20:43:45.671Z,5.02
2023-01-10T20:46:15.788Z,5.01
2023-01-10T20:48:43.668Z,4.95
2023-01-10T20:51:16.877Z,4.95
2023-01-10T20:53:44.384Z,4.99
2023-01-10T20:56:14.792Z,5.02
2023-01-10T20:58:42.645Z,4.94
2023-01-10T21:01:12.371Z,5.01
2023-01-10T21:03:43.074Z,5.05
2023-01-10T21:06:10.212Z,5.01
2023-01-10T21:08:37.536Z,5.07
2023-01-10T21:11:06.073Z,5.08
2023-01-10T21:13:35.157Z,5.10
2023-01-10T21:16:02.835Z,5.10
2023-01-10T21:18:37.870Z,5.09
2023-01-10T21:21:04.581Z,5.08
2023-01-10T21:23:31.531Z,5.15
2023-01-10T21:26:04.682Z,5.15
2023-01-10T21:28:42.578Z,5.22
